LSGG/GVA METAR and TAF weather

Enter ICAO airport designator
Station Type Date Time Source
LSGG METAR 2022/12/04 05:20 UTC NOAA

LSGG 040520Z VRB02KT 9999 OVC013 03/01 Q1011 NOSIG


Station Type Date Time Source
LSGG Decoded METAR 2022/12/04 05:20 UTC NOAA

Geneve-Cointrin, Switzerland (LSGG) 46-15N 006-08E 416M
Dec 04, 2022 - 12:20 AM EST / 2022.12.04 0520 UTC
Wind: Variable at 2 MPH (2 KT):0
Visibility: greater than 7 mile(s):0
Sky conditions: overcast
Temperature: 37 F (3 C)
Dew Point: 33 F (1 C)
Relative Humidity: 86%
Pressure (altimeter): 29.85 in. Hg (1011 hPa)
ob: LSGG 040520Z VRB02KT 9999 OVC013 03/01 Q1011 NOSIG
cycle: 5

Station Type Date Time Source
LSGG TAF 2022/12/04 06:35 UTC NOAA

TAF LSGG 040525Z 0406/0512 VRB02KT 9999 BKN015 TX05/0414Z TN02/0406Z TN00/0506Z
TEMPO 0406/0409 BKN012 PROB40
TEMPO 0408/0412 RA
TEMPO 0419/0503 4500 RA BKN013

Example: see airport list